Terminal Aerodrome Forecast
Issued by NWS

Current Version | Previous Version | Text Only | Print | Product List | Glossary Off
Versions: 1 2 3 4 5 6 7 8 9 10 11 12 13 14 15 16 17 18 19 20

000
FTUS41 KRLX 041100
TAFCKB
TAF
KCKB 041129Z 0412/0512 VRB03KT 5SM -RA BR OVC025
     FM041300 VRB03KT 2SM RA BR OVC008
      TEMPO 0413/0415 3SM -RA OVC015
     FM041500 23004KT 5SM -RA BR OVC015
     FM050200 VRB03KT 2SM -SNPL BR OVC008
     FM050600 34008G14KT 1SM -SN OVC008=

USA.gov is the U.S. government's official web portal to all federal, state and local government web resources and services.